sensor_id;sensor_type;location;lat;lon;timestamp;temperature;humidity
1626;DHT22;806;48.770;9.156;2023-12-07T00:00:40;4.40;16.20
1626;DHT22;806;48.770;9.156;2023-12-07T00:03:07;4.40;1.00
1626;DHT22;806;48.770;9.156;2023-12-07T00:05:35;4.50;3.80
1626;DHT22;806;48.770;9.156;2023-12-07T00:08:03;4.50;1.00
1626;DHT22;806;48.770;9.156;2023-12-07T00:10:30;4.50;1.00
1626;DHT22;806;48.770;9.156;2023-12-07T00:12:57;4.50;1.00
1626;DHT22;806;48.770;9.156;2023-12-07T00:15:24;4.60;1.00
1626;DHT22;806;48.770;9.156;2023-12-07T00:17:51;4.70;1.00
1626;DHT22;806;48.770;9.156;2023-12-07T00:20:18;4.70;1.00
1626;DHT22;806;48.770;9.156;2023-12-07T00:22:46;4.70;1.00
1626;DHT22;806;48.770;9.156;2023-12-07T00:25:14;4.70;1.00
1626;DHT22;806;48.770;9.156;2023-12-07T00:27:41;4.70;1.00
1626;DHT22;806;48.770;9.156;2023-12-07T00:30:09;4.60;1.00
1626;DHT22;806;48.770;9.156;2023-12-07T00:32:36;4.70;1.00
1626;DHT22;806;48.770;9.156;2023-12-07T00:35:04;4.60;1.00
1626;DHT22;806;48.770;9.156;2023-12-07T00:37:33;4.60;1.00
1626;DHT22;806;48.770;9.156;2023-12-07T00:40:01;4.60;1.00
1626;DHT22;806;48.770;9.156;2023-12-07T00:42:29;4.50;1.00
1626;DHT22;806;48.770;9.156;2023-12-07T00:44:57;4.60;1.00
1626;DHT22;806;48.770;9.156;2023-12-07T00:47:24;4.70;1.00
1626;DHT22;806;48.770;9.156;2023-12-07T00:49:51;4.60;1.00
1626;DHT22;806;48.770;9.156;2023-12-07T00:52:18;4.50;1.00
1626;DHT22;806;48.770;9.156;2023-12-07T00:54:45;4.50;1.00
1626;DHT22;806;48.770;9.156;2023-12-07T00:57:13;4.40;1.00
1626;DHT22;806;48.770;9.156;2023-12-07T00:59:40;4.40;1.00
1626;DHT22;806;48.770;9.156;2023-12-07T01:02:07;4.50;1.00
1626;DHT22;806;48.770;9.156;2023-12-07T01:04:34;4.50;1.00
1626;DHT22;806;48.770;9.156;2023-12-07T01:07:01;4.50;1.00
1626;DHT22;806;48.770;9.156;2023-12-07T01:09:28;4.50;1.00
1626;DHT22;806;48.770;9.156;2023-12-07T01:11:55;4.50;1.00
1626;DHT22;806;48.770;9.156;2023-12-07T01:14:25;4.60;1.00
1626;DHT22;806;48.770;9.156;2023-12-07T01:16:52;4.40;1.00
1626;DHT22;806;48.770;9.156;2023-12-07T01:19:19;4.50;1.00
1626;DHT22;806;48.770;9.156;2023-12-07T01:21:47;4.50;1.00
1626;DHT22;806;48.770;9.156;2023-12-07T01:24:14;4.50;1.00
1626;DHT22;806;48.770;9.156;2023-12-07T01:26:40;4.50;1.00
1626;DHT22;806;48.770;9.156;2023-12-07T01:29:07;4.50;1.00
1626;DHT22;806;48.770;9.156;2023-12-07T01:31:36;4.50;1.00
1626;DHT22;806;48.770;9.156;2023-12-07T01:34:03;4.50;1.00
1626;DHT22;806;48.770;9.156;2023-12-07T01:36:30;4.40;1.00
1626;DHT22;806;48.770;9.156;2023-12-07T01:38:57;4.40;1.00
1626;DHT22;806;48.770;9.156;2023-12-07T01:41:24;4.40;1.00
1626;DHT22;806;48.770;9.156;2023-12-07T01:43:51;4.40;1.00
1626;DHT22;806;48.770;9.156;2023-12-07T01:46:18;4.40;1.00
1626;DHT22;806;48.770;9.156;2023-12-07T01:48:46;4.40;1.00
1626;DHT22;806;48.770;9.156;2023-12-07T01:51:15;4.40;1.00
1626;DHT22;806;48.770;9.156;2023-12-07T01:53:43;4.40;84.50
1626;DHT22;806;48.770;9.156;2023-12-07T01:56:11;4.40;84.40
1626;DHT22;806;48.770;9.156;2023-12-07T01:58:38;4.50;99.90
1626;DHT22;806;48.770;9.156;2023-12-07T02:01:05;4.50;99.90
1626;DHT22;806;48.770;9.156;2023-12-07T02:03:32;4.60;99.90
1626;DHT22;806;48.770;9.156;2023-12-07T02:06:01;4.60;99.90
1626;DHT22;806;48.770;9.156;2023-12-07T02:08:29;4.60;99.90
1626;DHT22;806;48.770;9.156;2023-12-07T02:10:57;4.60;99.90
1626;DHT22;806;48.770;9.156;2023-12-07T02:13:24;4.60;99.90
1626;DHT22;806;48.770;9.156;2023-12-07T02:15:52;4.60;99.90
1626;DHT22;806;48.770;9.156;2023-12-07T02:18:25;4.60;99.90
1626;DHT22;806;48.770;9.156;2023-12-07T02:21:00;4.60;99.90
1626;DHT22;806;48.770;9.156;2023-12-07T02:23:29;4.50;59.90
1626;DHT22;806;48.770;9.156;2023-12-07T02:26:20;4.40;99.90
1626;DHT22;806;48.770;9.156;2023-12-07T02:28:52;4.20;99.90
1626;DHT22;806;48.770;9.156;2023-12-07T02:31:19;4.20;1.00
1626;DHT22;806;48.770;9.156;2023-12-07T02:33:46;4.10;1.00
1626;DHT22;806;48.770;9.156;2023-12-07T02:36:15;4.10;1.00
1626;DHT22;806;48.770;9.156;2023-12-07T02:38:44;4.20;1.00
1626;DHT22;806;48.770;9.156;2023-12-07T02:41:13;4.30;1.00
1626;DHT22;806;48.770;9.156;2023-12-07T02:43:42;4.10;1.00
1626;DHT22;806;48.770;9.156;2023-12-07T02:46:10;3.80;1.00
1626;DHT22;806;48.770;9.156;2023-12-07T02:48:37;3.70;1.00
1626;DHT22;806;48.770;9.156;2023-12-07T02:51:04;3.60;1.00
1626;DHT22;806;48.770;9.156;2023-12-07T02:53:32;3.50;99.90
1626;DHT22;806;48.770;9.156;2023-12-07T02:55:59;3.40;1.00
1626;DHT22;806;48.770;9.156;2023-12-07T02:58:26;3.40;1.00
1626;DHT22;806;48.770;9.156;2023-12-07T03:00:53;3.40;1.00
1626;DHT22;806;48.770;9.156;2023-12-07T03:03:21;3.30;1.00
1626;DHT22;806;48.770;9.156;2023-12-07T03:05:48;3.20;1.00
1626;DHT22;806;48.770;9.156;2023-12-07T03:08:15;3.20;99.90
1626;DHT22;806;48.770;9.156;2023-12-07T03:10:42;3.10;99.90
1626;DHT22;806;48.770;9.156;2023-12-07T03:13:08;3.10;97.20
1626;DHT22;806;48.770;9.156;2023-12-07T03:15:35;3.10;1.00
1626;DHT22;806;48.770;9.156;2023-12-07T03:18:02;3.10;99.90
1626;DHT22;806;48.770;9.156;2023-12-07T03:20:31;3.10;99.90
1626;DHT22;806;48.770;9.156;2023-12-07T03:22:58;3.20;1.00
1626;DHT22;806;48.770;9.156;2023-12-07T03:25:25;3.20;1.00
1626;DHT22;806;48.770;9.156;2023-12-07T03:27:52;3.30;1.00
1626;DHT22;806;48.770;9.156;2023-12-07T03:30:19;3.30;1.00
1626;DHT22;806;48.770;9.156;2023-12-07T03:32:46;3.30;1.00
1626;DHT22;806;48.770;9.156;2023-12-07T03:35:13;3.40;1.00
1626;DHT22;806;48.770;9.156;2023-12-07T03:37:41;3.40;99.90
1626;DHT22;806;48.770;9.156;2023-12-07T03:40:09;3.20;96.30
1626;DHT22;806;48.770;9.156;2023-12-07T03:42:36;3.20;1.00
1626;DHT22;806;48.770;9.156;2023-12-07T03:45:04;3.10;99.90
1626;DHT22;806;48.770;9.156;2023-12-07T03:47:31;2.90;1.00
1626;DHT22;806;48.770;9.156;2023-12-07T03:49:58;2.80;99.90
1626;DHT22;806;48.770;9.156;2023-12-07T03:52:25;2.80;99.90
1626;DHT22;806;48.770;9.156;2023-12-07T03:54:53;2.70;99.90
1626;DHT22;806;48.770;9.156;2023-12-07T03:57:20;2.70;99.90
1626;DHT22;806;48.770;9.156;2023-12-07T03:59:47;2.70;99.90
1626;DHT22;806;48.770;9.156;2023-12-07T04:02:14;2.70;99.90
1626;DHT22;806;48.770;9.156;2023-12-07T04:04:41;2.60;1.00
1626;DHT22;806;48.770;9.156;2023-12-07T04:07:08;2.60;1.00
1626;DHT22;806;48.770;9.156;2023-12-07T04:09:35;2.60;1.00
1626;DHT22;806;48.770;9.156;2023-12-07T04:12:04;2.60;1.00
1626;DHT22;806;48.770;9.156;2023-12-07T04:14:31;2.50;1.00
1626;DHT22;806;48.770;9.156;2023-12-07T04:16:58;2.40;1.00
1626;DHT22;806;48.770;9.156;2023-12-07T04:19:25;2.40;1.00
1626;DHT22;806;48.770;9.156;2023-12-07T04:21:52;2.50;1.00
1626;DHT22;806;48.770;9.156;2023-12-07T04:24:19;2.60;1.00
1626;DHT22;806;48.770;9.156;2023-12-07T04:26:46;2.70;1.00
1626;DHT22;806;48.770;9.156;2023-12-07T04:29:16;2.80;1.00
1626;DHT22;806;48.770;9.156;2023-12-07T04:31:43;2.70;1.00
1626;DHT22;806;48.770;9.156;2023-12-07T04:34:10;2.60;1.00
1626;DHT22;806;48.770;9.156;2023-12-07T04:36:37;2.60;1.00
1626;DHT22;806;48.770;9.156;2023-12-07T04:39:04;2.60;1.00
1626;DHT22;806;48.770;9.156;2023-12-07T04:41:31;2.60;1.00
1626;DHT22;806;48.770;9.156;2023-12-07T04:43:58;2.70;1.00
1626;DHT22;806;48.770;9.156;2023-12-07T04:46:26;2.70;1.00
1626;DHT22;806;48.770;9.156;2023-12-07T04:48:54;2.50;1.00
1626;DHT22;806;48.770;9.156;2023-12-07T04:51:21;2.50;1.00
1626;DHT22;806;48.770;9.156;2023-12-07T04:53:48;2.40;1.00
1626;DHT22;806;48.770;9.156;2023-12-07T04:56:15;2.40;1.00
1626;DHT22;806;48.770;9.156;2023-12-07T04:58:42;2.40;1.00
1626;DHT22;806;48.770;9.156;2023-12-07T05:01:09;2.30;1.00
1626;DHT22;806;48.770;9.156;2023-12-07T05:03:37;2.30;1.00
1626;DHT22;806;48.770;9.156;2023-12-07T05:06:05;2.30;1.00
1626;DHT22;806;48.770;9.156;2023-12-07T05:08:33;2.30;1.00
1626;DHT22;806;48.770;9.156;2023-12-07T05:11:00;2.30;1.00
1626;DHT22;806;48.770;9.156;2023-12-07T05:13:27;2.40;1.00
1626;DHT22;806;48.770;9.156;2023-12-07T05:15:54;2.50;1.00
1626;DHT22;806;48.770;9.156;2023-12-07T05:18:21;2.50;1.00
1626;DHT22;806;48.770;9.156;2023-12-07T05:20:49;2.50;1.00
1626;DHT22;806;48.770;9.156;2023-12-07T05:23:16;2.50;1.00
1626;DHT22;806;48.770;9.156;2023-12-07T05:25:43;2.40;1.00
1626;DHT22;806;48.770;9.156;2023-12-07T05:28:11;2.30;1.00
1626;DHT22;806;48.770;9.156;2023-12-07T05:30:38;2.20;1.00
1626;DHT22;806;48.770;9.156;2023-12-07T05:33:05;2.30;1.00
1626;DHT22;806;48.770;9.156;2023-12-07T05:35:33;2.30;1.00
1626;DHT22;806;48.770;9.156;2023-12-07T05:38:02;2.30;1.00
1626;DHT22;806;48.770;9.156;2023-12-07T05:40:29;2.30;1.00
1626;DHT22;806;48.770;9.156;2023-12-07T05:42:56;2.30;1.00
1626;DHT22;806;48.770;9.156;2023-12-07T05:45:23;2.20;1.00
1626;DHT22;806;48.770;9.156;2023-12-07T05:47:51;2.10;1.00
1626;DHT22;806;48.770;9.156;2023-12-07T05:50:18;2.00;1.00
1626;DHT22;806;48.770;9.156;2023-12-07T05:52:46;2.00;1.00
1626;DHT22;806;48.770;9.156;2023-12-07T05:55:14;2.00;1.00
1626;DHT22;806;48.770;9.156;2023-12-07T05:57:41;2.00;1.00
1626;DHT22;806;48.770;9.156;2023-12-07T06:00:12;2.00;1.00
1626;DHT22;806;48.770;9.156;2023-12-07T06:02:41;2.00;1.00
1626;DHT22;806;48.770;9.156;2023-12-07T06:05:09;2.00;1.00
1626;DHT22;806;48.770;9.156;2023-12-07T06:07:36;2.00;1.00
1626;DHT22;806;48.770;9.156;2023-12-07T06:10:04;2.00;1.00
1626;DHT22;806;48.770;9.156;2023-12-07T06:12:33;2.00;1.00
1626;DHT22;806;48.770;9.156;2023-12-07T06:15:00;1.90;1.00
1626;DHT22;806;48.770;9.156;2023-12-07T06:17:27;2.00;1.00
1626;DHT22;806;48.770;9.156;2023-12-07T06:19:54;2.10;1.00
1626;DHT22;806;48.770;9.156;2023-12-07T06:22:21;2.20;1.00
1626;DHT22;806;48.770;9.156;2023-12-07T06:24:48;2.30;1.00
1626;DHT22;806;48.770;9.156;2023-12-07T06:27:15;2.40;1.00
1626;DHT22;806;48.770;9.156;2023-12-07T06:29:45;2.50;1.00
1626;DHT22;806;48.770;9.156;2023-12-07T06:32:12;2.50;1.00
1626;DHT22;806;48.770;9.156;2023-12-07T06:34:40;2.40;1.00
1626;DHT22;806;48.770;9.156;2023-12-07T06:37:08;2.40;1.00
1626;DHT22;806;48.770;9.156;2023-12-07T06:39:36;2.30;1.00
1626;DHT22;806;48.770;9.156;2023-12-07T06:42:03;2.30;1.00
1626;DHT22;806;48.770;9.156;2023-12-07T06:44:30;2.30;1.00
1626;DHT22;806;48.770;9.156;2023-12-07T06:46:58;2.20;1.00
1626;DHT22;806;48.770;9.156;2023-12-07T06:49:28;2.20;1.00
1626;DHT22;806;48.770;9.156;2023-12-07T06:51:55;2.20;1.00
1626;DHT22;806;48.770;9.156;2023-12-07T06:54:22;2.20;1.00
1626;DHT22;806;48.770;9.156;2023-12-07T06:56:49;2.30;1.00
1626;DHT22;806;48.770;9.156;2023-12-07T06:59:16;2.10;1.00
1626;DHT22;806;48.770;9.156;2023-12-07T07:01:44;2.10;1.00
1626;DHT22;806;48.770;9.156;2023-12-07T07:04:12;2.20;1.00
1626;DHT22;806;48.770;9.156;2023-12-07T07:06:40;2.30;1.00
1626;DHT22;806;48.770;9.156;2023-12-07T07:09:08;2.50;1.00
1626;DHT22;806;48.770;9.156;2023-12-07T07:11:35;2.70;1.00
1626;DHT22;806;48.770;9.156;2023-12-07T07:14:02;3.20;1.00
1626;DHT22;806;48.770;9.156;2023-12-07T07:16:30;3.20;1.00
1626;DHT22;806;48.770;9.156;2023-12-07T07:18:57;3.10;1.00
1626;DHT22;806;48.770;9.156;2023-12-07T07:21:26;2.80;99.90
1626;DHT22;806;48.770;9.156;2023-12-07T07:23:53;2.60;99.90
1626;DHT22;806;48.770;9.156;2023-12-07T07:26:20;2.40;99.90
1626;DHT22;806;48.770;9.156;2023-12-07T07:28:47;2.30;1.00
1626;DHT22;806;48.770;9.156;2023-12-07T07:31:15;2.20;1.00
1626;DHT22;806;48.770;9.156;2023-12-07T07:33:43;2.00;1.00
1626;DHT22;806;48.770;9.156;2023-12-07T07:36:10;2.00;1.00
1626;DHT22;806;48.770;9.156;2023-12-07T07:38:39;1.90;1.00
1626;DHT22;806;48.770;9.156;2023-12-07T07:41:06;1.70;1.00
1626;DHT22;806;48.770;9.156;2023-12-07T07:43:33;1.70;1.00
1626;DHT22;806;48.770;9.156;2023-12-07T07:46:01;1.70;1.00
1626;DHT22;806;48.770;9.156;2023-12-07T07:48:28;1.70;1.00
1626;DHT22;806;48.770;9.156;2023-12-07T07:50:55;1.70;1.00
1626;DHT22;806;48.770;9.156;2023-12-07T07:53:22;1.70;1.00
1626;DHT22;806;48.770;9.156;2023-12-07T07:55:50;1.80;1.00
1626;DHT22;806;48.770;9.156;2023-12-07T07:58:17;1.90;1.00
1626;DHT22;806;48.770;9.156;2023-12-07T08:00:44;1.90;1.00
1626;DHT22;806;48.770;9.156;2023-12-07T08:03:12;2.00;1.00
1626;DHT22;806;48.770;9.156;2023-12-07T08:05:39;2.40;1.00
1626;DHT22;806;48.770;9.156;2023-12-07T08:08:06;2.80;1.00
1626;DHT22;806;48.770;9.156;2023-12-07T08:10:34;2.80;1.00
1626;DHT22;806;48.770;9.156;2023-12-07T08:13:03;2.60;1.00
1626;DHT22;806;48.770;9.156;2023-12-07T08:15:29;2.80;1.00
1626;DHT22;806;48.770;9.156;2023-12-07T08:17:57;3.30;1.00
1626;DHT22;806;48.770;9.156;2023-12-07T08:20:24;3.50;1.00
1626;DHT22;806;48.770;9.156;2023-12-07T08:22:52;3.20;99.90
1626;DHT22;806;48.770;9.156;2023-12-07T08:25:19;3.00;99.90
1626;DHT22;806;48.770;9.156;2023-12-07T08:27:47;2.70;99.90
1626;DHT22;806;48.770;9.156;2023-12-07T08:30:15;2.70;99.90
1626;DHT22;806;48.770;9.156;2023-12-07T08:32:42;2.70;99.90
1626;DHT22;806;48.770;9.156;2023-12-07T08:35:09;2.60;99.90
1626;DHT22;806;48.770;9.156;2023-12-07T08:37:38;2.50;99.90
1626;DHT22;806;48.770;9.156;2023-12-07T08:40:06;2.60;99.90
1626;DHT22;806;48.770;9.156;2023-12-07T08:42:35;2.60;1.00
1626;DHT22;806;48.770;9.156;2023-12-07T08:45:03;2.50;99.90
1626;DHT22;806;48.770;9.156;2023-12-07T08:47:31;2.50;99.90
1626;DHT22;806;48.770;9.156;2023-12-07T08:49:58;2.50;99.90
1626;DHT22;806;48.770;9.156;2023-12-07T08:52:25;2.50;99.90
1626;DHT22;806;48.770;9.156;2023-12-07T08:54:52;2.60;99.90
1626;DHT22;806;48.770;9.156;2023-12-07T08:57:20;2.60;99.90
1626;DHT22;806;48.770;9.156;2023-12-07T08:59:47;2.60;99.90
1626;DHT22;806;48.770;9.156;2023-12-07T09:02:14;2.70;1.00
1626;DHT22;806;48.770;9.156;2023-12-07T09:04:42;2.80;1.00
1626;DHT22;806;48.770;9.156;2023-12-07T09:07:09;2.70;86.40
1626;DHT22;806;48.770;9.156;2023-12-07T09:09:41;2.80;49.00
1626;DHT22;806;48.770;9.156;2023-12-07T09:12:12;2.80;29.60
1626;DHT22;806;48.770;9.156;2023-12-07T09:14:39;2.90;99.90
1626;DHT22;806;48.770;9.156;2023-12-07T09:17:06;3.10;1.00
1626;DHT22;806;48.770;9.156;2023-12-07T09:19:33;3.20;99.90
1626;DHT22;806;48.770;9.156;2023-12-07T09:22:02;3.20;99.90
1626;DHT22;806;48.770;9.156;2023-12-07T09:24:29;3.30;99.90
1626;DHT22;806;48.770;9.156;2023-12-07T09:26:56;3.30;1.00
1626;DHT22;806;48.770;9.156;2023-12-07T09:29:23;3.40;99.90
1626;DHT22;806;48.770;9.156;2023-12-07T09:31:50;3.40;1.00
1626;DHT22;806;48.770;9.156;2023-12-07T09:34:17;3.40;99.90
1626;DHT22;806;48.770;9.156;2023-12-07T09:36:44;3.50;99.90
1626;DHT22;806;48.770;9.156;2023-12-07T09:39:13;3.60;1.00
1626;DHT22;806;48.770;9.156;2023-12-07T09:41:41;3.60;1.00
1626;DHT22;806;48.770;9.156;2023-12-07T09:44:12;3.60;1.00
1626;DHT22;806;48.770;9.156;2023-12-07T09:46:39;3.70;1.00
1626;DHT22;806;48.770;9.156;2023-12-07T09:49:06;3.60;1.00
1626;DHT22;806;48.770;9.156;2023-12-07T09:51:34;3.60;99.90
1626;DHT22;806;48.770;9.156;2023-12-07T09:54:03;3.60;1.00
1626;DHT22;806;48.770;9.156;2023-12-07T09:56:32;3.60;99.90
1626;DHT22;806;48.770;9.156;2023-12-07T09:58:59;3.70;1.00
1626;DHT22;806;48.770;9.156;2023-12-07T10:01:28;3.90;1.00
1626;DHT22;806;48.770;9.156;2023-12-07T10:04:19;4.90;1.00
1626;DHT22;806;48.770;9.156;2023-12-07T10:06:48;6.20;1.00
1626;DHT22;806;48.770;9.156;2023-12-07T10:09:16;6.20;99.90
1626;DHT22;806;48.770;9.156;2023-12-07T10:11:46;6.00;87.80
1626;DHT22;806;48.770;9.156;2023-12-07T10:14:14;5.60;66.20
1626;DHT22;806;48.770;9.156;2023-12-07T10:16:52;5.20;99.90
1626;DHT22;806;48.770;9.156;2023-12-07T10:19:21;5.10;99.90
1626;DHT22;806;48.770;9.156;2023-12-07T10:21:48;5.10;99.90
1626;DHT22;806;48.770;9.156;2023-12-07T10:24:16;4.90;99.90
1626;DHT22;806;48.770;9.156;2023-12-07T10:26:45;4.80;99.90
1626;DHT22;806;48.770;9.156;2023-12-07T10:29:13;4.60;99.90
1626;DHT22;806;48.770;9.156;2023-12-07T10:31:40;4.50;99.90
1626;DHT22;806;48.770;9.156;2023-12-07T10:34:08;4.40;99.90
1626;DHT22;806;48.770;9.156;2023-12-07T10:36:35;4.40;99.90
1626;DHT22;806;48.770;9.156;2023-12-07T10:39:02;4.40;99.90
1626;DHT22;806;48.770;9.156;2023-12-07T10:41:33;4.30;99.90
1626;DHT22;806;48.770;9.156;2023-12-07T10:44:04;4.30;99.90
1626;DHT22;806;48.770;9.156;2023-12-07T10:46:33;4.40;99.90
1626;DHT22;806;48.770;9.156;2023-12-07T10:49:03;4.70;99.90
1626;DHT22;806;48.770;9.156;2023-12-07T10:51:36;4.80;99.90
1626;DHT22;806;48.770;9.156;2023-12-07T10:54:04;4.90;19.50
1626;DHT22;806;48.770;9.156;2023-12-07T10:56:38;4.80;1.00
1626;DHT22;806;48.770;9.156;2023-12-07T10:59:09;4.70;1.00
1626;DHT22;806;48.770;9.156;2023-12-07T11:01:37;4.50;1.00
1626;DHT22;806;48.770;9.156;2023-12-07T11:04:05;4.50;1.00
1626;DHT22;806;48.770;9.156;2023-12-07T11:06:32;4.70;8.70
1626;DHT22;806;48.770;9.156;2023-12-07T11:09:03;4.80;4.20
1626;DHT22;806;48.770;9.156;2023-12-07T11:11:36;4.90;1.00
1626;DHT22;806;48.770;9.156;2023-12-07T11:14:08;4.90;1.00
1626;DHT22;806;48.770;9.156;2023-12-07T11:16:41;4.90;1.00
1626;DHT22;806;48.770;9.156;2023-12-07T11:22:10;4.90;1.00
1626;DHT22;806;48.770;9.156;2023-12-07T11:24:38;5.00;1.00
1626;DHT22;806;48.770;9.156;2023-12-07T11:27:06;5.10;1.00
1626;DHT22;806;48.770;9.156;2023-12-07T11:29:35;5.10;1.00
1626;DHT22;806;48.770;9.156;2023-12-07T11:32:03;5.10;1.00
1626;DHT22;806;48.770;9.156;2023-12-07T11:34:35;5.20;1.00
1626;DHT22;806;48.770;9.156;2023-12-07T11:37:03;5.20;1.00
1626;DHT22;806;48.770;9.156;2023-12-07T11:39:35;5.20;1.00
1626;DHT22;806;48.770;9.156;2023-12-07T11:42:06;5.30;1.00
1626;DHT22;806;48.770;9.156;2023-12-07T11:44:38;5.40;1.00
1626;DHT22;806;48.770;9.156;2023-12-07T11:47:05;5.30;1.00
1626;DHT22;806;48.770;9.156;2023-12-07T11:49:32;5.30;1.00
1626;DHT22;806;48.770;9.156;2023-12-07T11:52:00;5.30;1.00
1626;DHT22;806;48.770;9.156;2023-12-07T11:54:27;5.40;1.00
1626;DHT22;806;48.770;9.156;2023-12-07T11:56:55;5.40;1.00
1626;DHT22;806;48.770;9.156;2023-12-07T11:59:22;5.40;1.00
1626;DHT22;806;48.770;9.156;2023-12-07T12:01:52;5.40;1.00
1626;DHT22;806;48.770;9.156;2023-12-07T12:04:19;5.40;1.00
1626;DHT22;806;48.770;9.156;2023-12-07T12:06:47;5.50;1.00
1626;DHT22;806;48.770;9.156;2023-12-07T12:09:16;5.50;1.00
1626;DHT22;806;48.770;9.156;2023-12-07T12:11:46;5.50;1.00
1626;DHT22;806;48.770;9.156;2023-12-07T12:14:14;5.40;1.00
1626;DHT22;806;48.770;9.156;2023-12-07T12:16:42;5.30;1.00
1626;DHT22;806;48.770;9.156;2023-12-07T12:19:11;5.30;1.00
1626;DHT22;806;48.770;9.156;2023-12-07T12:21:39;5.30;1.00
1626;DHT22;806;48.770;9.156;2023-12-07T12:24:06;5.30;1.00
1626;DHT22;806;48.770;9.156;2023-12-07T12:26:34;5.30;1.00
1626;DHT22;806;48.770;9.156;2023-12-07T12:29:02;5.40;1.00
1626;DHT22;806;48.770;9.156;2023-12-07T12:31:30;5.30;1.00
1626;DHT22;806;48.770;9.156;2023-12-07T12:33:57;5.30;1.00
1626;DHT22;806;48.770;9.156;2023-12-07T12:36:27;5.40;1.00
1626;DHT22;806;48.770;9.156;2023-12-07T12:38:55;5.40;1.00
1626;DHT22;806;48.770;9.156;2023-12-07T12:41:23;5.50;1.00
1626;DHT22;806;48.770;9.156;2023-12-07T12:43:51;5.50;1.00
1626;DHT22;806;48.770;9.156;2023-12-07T12:46:18;5.50;1.00
1626;DHT22;806;48.770;9.156;2023-12-07T12:48:55;5.50;1.00
1626;DHT22;806;48.770;9.156;2023-12-07T12:51:24;5.50;1.00
1626;DHT22;806;48.770;9.156;2023-12-07T12:53:54;5.50;1.00
1626;DHT22;806;48.770;9.156;2023-12-07T12:56:22;5.60;1.00
1626;DHT22;806;48.770;9.156;2023-12-07T12:58:49;5.60;1.00
1626;DHT22;806;48.770;9.156;2023-12-07T13:01:16;5.60;1.00
1626;DHT22;806;48.770;9.156;2023-12-07T13:03:44;5.60;1.00
1626;DHT22;806;48.770;9.156;2023-12-07T13:06:12;5.60;1.00
1626;DHT22;806;48.770;9.156;2023-12-07T13:08:40;5.70;1.00
1626;DHT22;806;48.770;9.156;2023-12-07T13:11:08;5.70;1.00
1626;DHT22;806;48.770;9.156;2023-12-07T13:13:35;5.80;1.00
1626;DHT22;806;48.770;9.156;2023-12-07T13:16:02;5.80;1.00
1626;DHT22;806;48.770;9.156;2023-12-07T13:18:29;5.70;1.00
1626;DHT22;806;48.770;9.156;2023-12-07T13:20:57;5.70;1.00
1626;DHT22;806;48.770;9.156;2023-12-07T13:23:25;5.50;1.00
1626;DHT22;806;48.770;9.156;2023-12-07T13:25:52;5.50;1.00
1626;DHT22;806;48.770;9.156;2023-12-07T13:28:21;5.50;1.00
1626;DHT22;806;48.770;9.156;2023-12-07T13:30:48;5.40;1.00
1626;DHT22;806;48.770;9.156;2023-12-07T13:33:16;5.40;1.00
1626;DHT22;806;48.770;9.156;2023-12-07T13:35:43;5.40;1.00
1626;DHT22;806;48.770;9.156;2023-12-07T13:38:10;5.40;1.00
1626;DHT22;806;48.770;9.156;2023-12-07T13:40:37;5.40;1.00
1626;DHT22;806;48.770;9.156;2023-12-07T13:43:04;5.40;1.00
1626;DHT22;806;48.770;9.156;2023-12-07T13:45:33;5.30;1.00
1626;DHT22;806;48.770;9.156;2023-12-07T13:48:00;5.30;1.00
1626;DHT22;806;48.770;9.156;2023-12-07T13:50:27;5.30;1.00
1626;DHT22;806;48.770;9.156;2023-12-07T13:52:54;5.30;1.00
1626;DHT22;806;48.770;9.156;2023-12-07T13:55:21;5.40;1.00
1626;DHT22;806;48.770;9.156;2023-12-07T13:57:49;5.40;1.00
1626;DHT22;806;48.770;9.156;2023-12-07T14:00:18;5.40;1.00
1626;DHT22;806;48.770;9.156;2023-12-07T14:02:47;5.40;1.00
1626;DHT22;806;48.770;9.156;2023-12-07T14:05:14;5.30;1.00
1626;DHT22;806;48.770;9.156;2023-12-07T14:07:41;5.30;1.00
1626;DHT22;806;48.770;9.156;2023-12-07T14:10:09;5.30;1.00
1626;DHT22;806;48.770;9.156;2023-12-07T14:12:35;5.30;1.00
1626;DHT22;806;48.770;9.156;2023-12-07T14:15:03;5.30;1.00
1626;DHT22;806;48.770;9.156;2023-12-07T14:17:30;5.40;1.00
1626;DHT22;806;48.770;9.156;2023-12-07T14:20:05;5.40;1.00
1626;DHT22;806;48.770;9.156;2023-12-07T14:22:34;5.40;1.00
1626;DHT22;806;48.770;9.156;2023-12-07T14:25:02;5.30;1.00
1626;DHT22;806;48.770;9.156;2023-12-07T14:27:29;5.30;1.00
1626;DHT22;806;48.770;9.156;2023-12-07T14:29:56;5.30;1.00
1626;DHT22;806;48.770;9.156;2023-12-07T14:32:23;5.40;1.00
1626;DHT22;806;48.770;9.156;2023-12-07T14:34:50;5.30;1.00
1626;DHT22;806;48.770;9.156;2023-12-07T14:37:19;5.30;1.00
1626;DHT22;806;48.770;9.156;2023-12-07T14:39:46;5.20;1.00
1626;DHT22;806;48.770;9.156;2023-12-07T14:42:13;5.20;1.00
1626;DHT22;806;48.770;9.156;2023-12-07T14:44:41;5.10;1.00
1626;DHT22;806;48.770;9.156;2023-12-07T14:47:08;5.10;1.00
1626;DHT22;806;48.770;9.156;2023-12-07T14:49:35;5.10;1.00
1626;DHT22;806;48.770;9.156;2023-12-07T14:52:02;5.00;1.00
1626;DHT22;806;48.770;9.156;2023-12-07T14:54:31;4.90;1.00
1626;DHT22;806;48.770;9.156;2023-12-07T14:56:58;4.80;1.00
1626;DHT22;806;48.770;9.156;2023-12-07T14:59:26;4.80;1.00
1626;DHT22;806;48.770;9.156;2023-12-07T15:01:54;4.70;1.00
1626;DHT22;806;48.770;9.156;2023-12-07T15:04:21;4.70;1.00
1626;DHT22;806;48.770;9.156;2023-12-07T15:06:48;4.60;1.00
1626;DHT22;806;48.770;9.156;2023-12-07T15:09:15;4.60;1.00
1626;DHT22;806;48.770;9.156;2023-12-07T15:11:43;4.60;1.00
1626;DHT22;806;48.770;9.156;2023-12-07T15:14:10;4.60;1.00
1626;DHT22;806;48.770;9.156;2023-12-07T15:16:37;4.50;1.00
1626;DHT22;806;48.770;9.156;2023-12-07T15:19:04;4.50;1.00
1626;DHT22;806;48.770;9.156;2023-12-07T15:21:31;4.50;1.00
1626;DHT22;806;48.770;9.156;2023-12-07T15:23:59;4.50;1.00
1626;DHT22;806;48.770;9.156;2023-12-07T15:26:26;4.50;1.00
1626;DHT22;806;48.770;9.156;2023-12-07T15:28:54;4.40;1.00
1626;DHT22;806;48.770;9.156;2023-12-07T15:31:21;4.40;1.00
1626;DHT22;806;48.770;9.156;2023-12-07T15:33:48;4.30;1.00
1626;DHT22;806;48.770;9.156;2023-12-07T15:36:16;4.30;1.00
1626;DHT22;806;48.770;9.156;2023-12-07T15:38:43;4.30;1.00
1626;DHT22;806;48.770;9.156;2023-12-07T15:41:10;4.30;1.00
1626;DHT22;806;48.770;9.156;2023-12-07T15:43:38;4.30;1.00
1626;DHT22;806;48.770;9.156;2023-12-07T15:46:06;4.20;1.00
1626;DHT22;806;48.770;9.156;2023-12-07T15:48:34;4.20;1.00
1626;DHT22;806;48.770;9.156;2023-12-07T15:51:01;4.20;1.00
1626;DHT22;806;48.770;9.156;2023-12-07T15:53:28;4.20;1.00
1626;DHT22;806;48.770;9.156;2023-12-07T15:55:57;4.20;1.00
1626;DHT22;806;48.770;9.156;2023-12-07T15:58:24;4.20;1.00
1626;DHT22;806;48.770;9.156;2023-12-07T16:00:51;4.10;1.00
1626;DHT22;806;48.770;9.156;2023-12-07T16:03:20;4.00;1.00
1626;DHT22;806;48.770;9.156;2023-12-07T16:05:47;4.10;1.00
1626;DHT22;806;48.770;9.156;2023-12-07T16:08:14;4.00;1.00
1626;DHT22;806;48.770;9.156;2023-12-07T16:10:41;3.90;1.00
1626;DHT22;806;48.770;9.156;2023-12-07T16:13:08;3.80;1.00
1626;DHT22;806;48.770;9.156;2023-12-07T16:15:36;3.70;1.00
1626;DHT22;806;48.770;9.156;2023-12-07T16:18:03;3.70;1.00
1626;DHT22;806;48.770;9.156;2023-12-07T16:20:31;3.70;1.00
1626;DHT22;806;48.770;9.156;2023-12-07T16:22:59;3.70;1.00
1626;DHT22;806;48.770;9.156;2023-12-07T16:25:26;3.60;1.00
1626;DHT22;806;48.770;9.156;2023-12-07T16:27:53;3.60;1.00
1626;DHT22;806;48.770;9.156;2023-12-07T16:30:21;3.50;1.00
1626;DHT22;806;48.770;9.156;2023-12-07T16:32:47;3.50;1.00
1626;DHT22;806;48.770;9.156;2023-12-07T16:35:15;3.50;1.00
1626;DHT22;806;48.770;9.156;2023-12-07T16:37:43;3.50;1.00
1626;DHT22;806;48.770;9.156;2023-12-07T16:40:10;3.50;1.00
1626;DHT22;806;48.770;9.156;2023-12-07T16:42:38;3.40;1.00
1626;DHT22;806;48.770;9.156;2023-12-07T16:45:06;3.40;1.00
1626;DHT22;806;48.770;9.156;2023-12-07T16:47:34;3.40;1.00
1626;DHT22;806;48.770;9.156;2023-12-07T16:50:01;3.30;1.00
1626;DHT22;806;48.770;9.156;2023-12-07T16:52:28;3.30;1.00
1626;DHT22;806;48.770;9.156;2023-12-07T16:54:56;3.30;1.00